Time;durP1;ratioP1;P1;durP2;ratioP2;P2;SDS_P1;SDS_P2;PMS_P1;PMS_P2;Temp;Humidity;BMP_temperature;BMP_pressure;BME280_temperature;BME280_humidity;BME280_pressure;Samples;Min_cycle;Max_cycle;Signal;HPM_P1;HPM_P2
2022/01/22 00:00:46;;;;;;;799.13;400.80;;;;;;;;;;5051709;28;20056;-74
2022/01/22 00:03:12;;;;;;;797.28;396.85;;;;;;;;;;5067046;28;20032;-74
2022/01/22 00:05:38;;;;;;;797.47;394.13;;;;;;;;;;5069276;28;20043;-74
2022/01/22 00:08:04;;;;;;;793.63;386.58;;;;;;;;;;5068125;28;20044;-74
2022/01/22 00:10:32;;;;;;;800.15;395.75;;;;;;;;;;5053115;28;20091;-72
2022/01/22 00:15:27;;;;;;;797.40;392.70;;;;;;;;;;5050760;28;20040;-73
2022/01/22 00:17:53;;;;;;;798.25;390.00;;;;;;;;;;5065275;28;20725;-73
2022/01/22 00:20:20;;;;;;;798.30;390.52;;;;;;;;;;5070585;28;20399;-73
2022/01/22 00:22:47;;;;;;;792.97;383.92;;;;;;;;;;5050982;28;20430;-73
2022/01/22 00:25:14;;;;;;;795.70;388.70;;;;;;;;;;5070749;28;20052;-73
2022/01/22 00:27:41;;;;;;;798.13;394.38;;;;;;;;;;5064817;28;20029;-73
2022/01/22 00:30:08;;;;;;;802.13;403.75;;;;;;;;;;5070518;28;20383;-73
2022/01/22 00:32:35;;;;;;;796.17;394.67;;;;;;;;;;5050582;28;20116;-73
2022/01/22 00:35:01;;;;;;;798.45;393.25;;;;;;;;;;5068874;28;20052;-73
2022/01/22 00:37:27;;;;;;;799.65;397.35;;;;;;;;;;5067702;28;20697;-73
2022/01/22 00:39:52;;;;;;;794.25;383.23;;;;;;;;;;5068943;28;20021;-73
2022/01/22 00:42:20;;;;;;;799.08;393.05;;;;;;;;;;5050567;28;20028;-73
2022/01/22 00:44:49;;;;;;;798.50;394.95;;;;;;;;;;5052036;28;20456;-73
2022/01/22 00:47:15;;;;;;;794.78;383.48;;;;;;;;;;5067635;28;20035;-73
2022/01/22 00:49:41;;;;;;;798.38;396.20;;;;;;;;;;5039597;28;20039;-73
2022/01/22 00:52:07;;;;;;;798.22;392.80;;;;;;;;;;5053699;28;20029;-73
2022/01/22 00:54:33;;;;;;;800.05;402.27;;;;;;;;;;5067483;28;20496;-73
2022/01/22 00:56:59;;;;;;;799.80;396.65;;;;;;;;;;5045629;28;20030;-73
2022/01/22 00:59:25;;;;;;;794.60;377.55;;;;;;;;;;5068335;28;20040;-73
2022/01/22 01:01:51;;;;;;;799.67;399.30;;;;;;;;;;5066555;28;20033;-73
2022/01/22 01:04:17;;;;;;;798.60;395.33;;;;;;;;;;5068665;28;20036;-73
2022/01/22 01:06:43;;;;;;;800.47;399.90;;;;;;;;;;5066429;28;20036;-73
2022/01/22 01:09:10;;;;;;;802.38;406.30;;;;;;;;;;5063915;28;20028;-73
2022/01/22 01:11:42;;;;;;;802.47;399.52;;;;;;;;;;5048702;28;20126;-73
2022/01/22 01:14:11;;;;;;;800.85;396.38;;;;;;;;;;5062531;28;20024;-73
2022/01/22 01:33:07;;;;;;;795.40;386.80;;;;;;;;;;5059765;28;20040;-73
2022/01/22 01:35:37;;;;;;;799.70;395.52;;;;;;;;;;5039722;28;20013;-73
2022/01/22 01:38:03;;;;;;;797.55;390.33;;;;;;;;;;5065955;28;20021;-73
2022/01/22 01:40:31;;;;;;;798.55;394.55;;;;;;;;;;5050438;28;20027;-74
2022/01/22 01:45:23;;;;;;;795.85;388.25;;;;;;;;;;5067184;28;20039;-73
2022/01/22 01:47:57;;;;;;;801.05;401.23;;;;;;;;;;5066421;28;20033;-73
2022/01/22 01:50:23;;;;;;;799.72;399.00;;;;;;;;;;5061675;28;20021;-73
2022/01/22 01:53:05;;;;;;;802.05;407.92;;;;;;;;;;5057111;28;20028;-73
2022/01/22 01:55:48;;;;;;;795.55;389.92;;;;;;;;;;5047146;28;20029;-73
2022/01/22 01:58:15;;;;;;;797.20;393.00;;;;;;;;;;5058303;28;20017;-73
2022/01/22 02:00:41;;;;;;;798.58;398.05;;;;;;;;;;5062526;28;20057;-73
2022/01/22 02:03:09;;;;;;;798.78;399.42;;;;;;;;;;5064653;28;20078;-74
2022/01/22 02:05:37;;;;;;;797.67;396.67;;;;;;;;;;5061168;28;20087;-73
2022/01/22 02:08:03;;;;;;;798.80;394.58;;;;;;;;;;5065480;28;20649;-73
2022/01/22 02:10:33;;;;;;;800.60;404.90;;;;;;;;;;5064404;28;20543;-73
2022/01/22 02:24:04;;;;;;;796.78;388.38;;;;;;;;;;5064099;28;20049;-73
2022/01/22 02:26:30;;;;;;;800.88;402.58;;;;;;;;;;5066828;28;20674;-73
2022/01/22 02:28:57;;;;;;;800.53;402.48;;;;;;;;;;5067437;28;20028;-74
2022/01/22 02:31:34;;;;;;;802.42;408.63;;;;;;;;;;5057216;28;20033;-73
2022/01/22 02:36:38;;;;;;;803.25;407.10;;;;;;;;;;5068021;28;20047;-73
2022/01/22 02:39:19;;;;;;;802.28;404.88;;;;;;;;;;5064713;28;20111;-73
2022/01/22 02:41:48;;;;;;;801.28;403.23;;;;;;;;;;5065920;28;20683;-73
2022/01/22 02:44:31;;;;;;;800.10;405.02;;;;;;;;;;5066321;28;20051;-73
2022/01/22 02:46:57;;;;;;;801.78;403.90;;;;;;;;;;5065881;28;20392;-73
2022/01/22 02:49:23;;;;;;;800.78;406.15;;;;;;;;;;5064559;28;20043;-73
2022/01/22 02:51:49;;;;;;;801.58;405.42;;;;;;;;;;5047620;28;20063;-73
2022/01/22 02:54:16;;;;;;;797.15;391.42;;;;;;;;;;5063973;28;20111;-73
2022/01/22 02:56:42;;;;;;;802.50;407.10;;;;;;;;;;5066157;28;20051;-73
2022/01/22 02:59:08;;;;;;;798.53;396.48;;;;;;;;;;5065583;28;20032;-73
2022/01/22 03:01:34;;;;;;;801.38;410.45;;;;;;;;;;5065644;28;20095;-74
2022/01/22 03:04:00;;;;;;;801.85;405.73;;;;;;;;;;5067112;28;20585;-73
2022/01/22 03:06:29;;;;;;;801.92;406.80;;;;;;;;;;5066344;28;20040;-73
2022/01/22 03:08:55;;;;;;;801.55;405.58;;;;;;;;;;5064323;28;20044;-74
2022/01/22 03:11:25;;;;;;;799.67;403.73;;;;;;;;;;5033975;28;20063;-73
2022/01/22 03:17:10;;;;;;;800.40;396.77;;;;;;;;;;5066226;28;20044;-73
2022/01/22 03:22:16;;;;;;;805.70;408.42;;;;;;;;;;5066184;28;20471;-73
2022/01/22 03:27:29;;;;;;;804.35;403.08;;;;;;;;;;5068642;28;20051;-73
2022/01/22 03:29:56;;;;;;;800.47;401.60;;;;;;;;;;5050536;28;20031;-73
2022/01/22 03:32:24;;;;;;;804.75;407.52;;;;;;;;;;5049728;28;20031;-73
2022/01/22 03:34:58;;;;;;;799.60;395.50;;;;;;;;;;5042997;28;20029;-73
2022/01/22 03:37:25;;;;;;;802.75;404.98;;;;;;;;;;5052713;28;20044;-73
2022/01/22 03:39:52;;;;;;;803.97;405.75;;;;;;;;;;5049606;28;20032;-73
2022/01/22 03:42:18;;;;;;;806.60;407.15;;;;;;;;;;5043088;28;20058;-73
2022/01/22 03:44:44;;;;;;;803.85;408.25;;;;;;;;;;5070185;28;20041;-73
2022/01/22 03:47:10;;;;;;;800.13;397.73;;;;;;;;;;5068943;28;20036;-73
2022/01/22 03:49:36;;;;;;;798.33;393.80;;;;;;;;;;5047548;28;20028;-73
2022/01/22 03:52:02;;;;;;;803.40;404.90;;;;;;;;;;5054671;28;20029;-73
2022/01/22 03:54:28;;;;;;;805.20;414.33;;;;;;;;;;5051264;28;20107;-73
2022/01/22 03:56:54;;;;;;;800.17;406.85;;;;;;;;;;5070414;28;20100;-73
2022/01/22 03:59:21;;;;;;;802.58;406.98;;;;;;;;;;5049496;28;20024;-73
2022/01/22 04:04:42;;;;;;;797.90;398.90;;;;;;;;;;5067662;28;20466;-73
2022/01/22 04:09:57;;;;;;;798.00;393.63;;;;;;;;;;5065886;28;20133;-73
2022/01/22 04:12:33;;;;;;;800.78;397.77;;;;;;;;;;5069231;28;20075;-73
2022/01/22 04:15:03;;;;;;;798.85;399.40;;;;;;;;;;5061250;28;20078;-73
2022/01/22 04:25:31;;;;;;;795.28;388.98;;;;;;;;;;5063473;28;20121;-73
2022/01/22 04:27:57;;;;;;;594.23;290.93;;;;;;;;;;5050598;28;20060;-73
2022/01/22 04:30:23;;;;;;;795.08;389.17;;;;;;;;;;5070062;28;20068;-73
2022/01/22 04:32:50;;;;;;;791.80;384.13;;;;;;;;;;5067869;28;20781;-73
2022/01/22 04:35:17;;;;;;;800.28;400.38;;;;;;;;;;5067380;28;20024;-74
2022/01/22 04:37:44;;;;;;;797.22;398.92;;;;;;;;;;5067987;28;20024;-74
2022/01/22 04:40:10;;;;;;;794.92;392.55;;;;;;;;;;5068542;28;20029;-73
2022/01/22 04:42:38;;;;;;;796.80;397.63;;;;;;;;;;5067399;28;20077;-73
2022/01/22 04:45:38;;;;;;;793.92;390.98;;;;;;;;;;5049608;28;20676;-73
2022/01/22 04:48:23;;;;;;;791.00;383.98;;;;;;;;;;5057825;28;20071;-73
2022/01/22 04:56:14;;;;;;;795.85;388.02;;;;;;;;;;5063932;28;20039;-73
2022/01/22 04:58:40;;;;;;;794.58;391.38;;;;;;;;;;5066217;28;20056;-73
2022/01/22 05:01:06;;;;;;;798.10;398.42;;;;;;;;;;5067391;28;20094;-73
2022/01/22 05:03:32;;;;;;;795.72;394.65;;;;;;;;;;5053806;28;20024;-73
2022/01/22 05:05:59;;;;;;;795.30;388.48;;;;;;;;;;5065186;28;20041;-73
2022/01/22 05:08:25;;;;;;;795.72;389.52;;;;;;;;;;5065422;28;20039;-73
2022/01/22 05:10:51;;;;;;;797.38;397.05;;;;;;;;;;5036536;28;20025;-73
2022/01/22 05:13:17;;;;;;;797.85;397.52;;;;;;;;;;5051243;28;20041;-73
2022/01/22 05:15:43;;;;;;;797.58;402.85;;;;;;;;;;5049068;28;20058;-74
2022/01/22 05:18:09;;;;;;;796.42;393.23;;;;;;;;;;5068494;28;20644;-73
2022/01/22 05:20:46;;;;;;;801.63;400.73;;;;;;;;;;5068161;28;20020;-74
2022/01/22 05:23:17;;;;;;;797.00;395.63;;;;;;;;;;5061314;28;20020;-73
2022/01/22 05:25:52;;;;;;;799.50;397.27;;;;;;;;;;5067786;28;20036;-73
2022/01/22 05:29:02;;;;;;;796.45;392.33;;;;;;;;;;5066673;28;20046;-73
2022/01/22 05:39:24;;;;;;;795.35;389.08;;;;;;;;;;5067061;28;20120;-73
2022/01/22 05:41:51;;;;;;;798.10;396.30;;;;;;;;;;5067489;28;20064;-73
2022/01/22 05:44:17;;;;;;;797.78;403.02;;;;;;;;;;5066944;28;20644;-73
2022/01/22 05:46:44;;;;;;;796.22;395.75;;;;;;;;;;5068211;28;20508;-73
2022/01/22 05:49:10;;;;;;;795.60;390.65;;;;;;;;;;5061345;28;20516;-73
2022/01/22 05:51:40;;;;;;;797.08;396.02;;;;;;;;;;5060834;28;20071;-73
2022/01/22 05:59:39;;;;;;;796.90;397.83;;;;;;;;;;5068107;28;20696;-73
2022/01/22 06:02:06;;;;;;;795.30;387.80;;;;;;;;;;5067499;28;20028;-73
2022/01/22 06:04:32;;;;;;;793.70;388.40;;;;;;;;;;5064420;28;20578;-73
2022/01/22 06:07:00;;;;;;;799.95;396.85;;;;;;;;;;5066885;28;20028;-73
2022/01/22 06:09:26;;;;;;;802.80;406.15;;;;;;;;;;5061615;28;22983;-73
2022/01/22 06:11:57;;;;;;;796.85;397.30;;;;;;;;;;5068281;28;20048;-73
2022/01/22 06:14:23;;;;;;;796.42;398.48;;;;;;;;;;5048129;28;20029;-73
2022/01/22 06:16:49;;;;;;;799.58;401.73;;;;;;;;;;5062465;28;20021;-73
2022/01/22 06:19:15;;;;;;;795.20;385.63;;;;;;;;;;5042571;28;20064;-73
2022/01/22 06:21:41;;;;;;;796.15;391.58;;;;;;;;;;5067118;28;20029;-73
2022/01/22 06:24:07;;;;;;;794.03;389.63;;;;;;;;;;5047688;28;20128;-73
2022/01/22 06:26:35;;;;;;;797.15;395.77;;;;;;;;;;5065444;28;20043;-73
2022/01/22 06:29:01;;;;;;;796.20;394.13;;;;;;;;;;5067652;28;20564;-73
2022/01/22 06:31:28;;;;;;;800.97;403.30;;;;;;;;;;5066352;28;20103;-73
2022/01/22 06:33:53;;;;;;;798.50;399.50;;;;;;;;;;5059898;28;20032;-73
2022/01/22 06:36:19;;;;;;;799.58;399.85;;;;;;;;;;5065903;28;20032;-73
2022/01/22 06:38:45;;;;;;;798.40;401.35;;;;;;;;;;5064274;28;20095;-73
2022/01/22 06:43:56;;;;;;;796.85;388.50;;;;;;;;;;5056979;28;20055;-73
2022/01/22 06:46:22;;;;;;;800.63;395.40;;;;;;;;;;5066035;28;20041;-73
2022/01/22 06:48:48;;;;;;;793.40;382.52;;;;;;;;;;5066137;28;20047;-73
2022/01/22 06:51:16;;;;;;;796.63;394.40;;;;;;;;;;5068266;28;20035;-73
2022/01/22 06:53:42;;;;;;;800.00;400.45;;;;;;;;;;5063527;28;20039;-73
2022/01/22 06:56:09;;;;;;;795.60;388.38;;;;;;;;;;5048592;28;20104;-73
2022/01/22 06:58:35;;;;;;;801.60;399.83;;;;;;;;;;5040373;28;20035;-73
2022/01/22 07:01:01;;;;;;;799.47;393.63;;;;;;;;;;5061847;28;20146;-73
2022/01/22 07:03:27;;;;;;;802.45;407.23;;;;;;;;;;5068968;28;20028;-73
2022/01/22 07:05:53;;;;;;;803.35;405.88;;;;;;;;;;5069963;28;20033;-73
2022/01/22 07:08:19;;;;;;;797.25;395.30;;;;;;;;;;5053136;28;20508;-72
2022/01/22 07:10:45;;;;;;;797.33;395.95;;;;;;;;;;5049467;28;20768;-73
2022/01/22 07:13:11;;;;;;;805.65;407.42;;;;;;;;;;5068280;28;20665;-73
2022/01/22 07:15:37;;;;;;;798.53;400.70;;;;;;;;;;5068991;28;20036;-73
2022/01/22 07:18:04;;;;;;;797.88;399.67;;;;;;;;;;5071987;28;20064;-73
2022/01/22 07:20:33;;;;;;;802.20;401.55;;;;;;;;;;5045197;28;20033;-73
2022/01/22 07:25:25;;;;;;;802.35;409.52;;;;;;;;;;5069444;28;20032;-74
2022/01/22 07:27:51;;;;;;;802.78;406.98;;;;;;;;;;5045142;28;20020;-74
2022/01/22 07:30:17;;;;;;;800.00;401.13;;;;;;;;;;5063847;28;20059;-74
2022/01/22 07:32:44;;;;;;;799.05;403.08;;;;;;;;;;5059937;28;20020;-74
2022/01/22 07:35:14;;;;;;;801.15;405.08;;;;;;;;;;5060295;28;20056;-73
2022/01/22 07:37:41;;;;;;;805.30;408.52;;;;;;;;;;5053419;28;20032;-74
2022/01/22 07:40:08;;;;;;;805.78;413.38;;;;;;;;;;5060239;28;20036;-74
2022/01/22 07:42:34;;;;;;;798.47;401.77;;;;;;;;;;5047236;28;20075;-74
2022/01/22 07:45:00;;;;;;;799.63;403.83;;;;;;;;;;5060709;28;20029;-74
2022/01/22 07:47:26;;;;;;;801.72;410.08;;;;;;;;;;5039745;28;20032;-73
2022/01/22 07:49:52;;;;;;;806.15;414.60;;;;;;;;;;5061792;28;20508;-73
2022/01/22 07:52:18;;;;;;;805.72;425.67;;;;;;;;;;5063783;28;20034;-74
2022/01/22 07:54:44;;;;;;;805.58;416.60;;;;;;;;;;5048025;28;20041;-73
2022/01/22 07:57:10;;;;;;;802.40;412.25;;;;;;;;;;5069566;28;20114;-73
2022/01/22 07:59:36;;;;;;;802.60;413.45;;;;;;;;;;5067771;28;20043;-73
2022/01/22 08:02:06;;;;;;;801.75;409.75;;;;;;;;;;5061998;28;20024;-73
2022/01/22 08:04:32;;;;;;;804.88;413.25;;;;;;;;;;5049450;28;20435;-74
2022/01/22 08:06:59;;;;;;;801.67;407.00;;;;;;;;;;5052533;28;20032;-74
2022/01/22 08:09:25;;;;;;;798.45;401.83;;;;;;;;;;5067909;28;20088;-74
2022/01/22 08:11:51;;;;;;;801.65;408.40;;;;;;;;;;5043421;28;20484;-74
2022/01/22 08:14:17;;;;;;;804.10;410.73;;;;;;;;;;5063005;28;20111;-74
2022/01/22 08:16:49;;;;;;;802.78;405.38;;;;;;;;;;5042985;28;20036;-74
2022/01/22 08:19:15;;;;;;;803.13;416.88;;;;;;;;;;5065238;28;20499;-73
2022/01/22 08:21:41;;;;;;;803.15;403.55;;;;;;;;;;5054982;28;20040;-74
2022/01/22 08:24:08;;;;;;;802.83;411.60;;;;;;;;;;5060980;28;20036;-73
2022/01/22 08:26:38;;;;;;;801.08;410.05;;;;;;;;;;5065348;28;20105;-73
2022/01/22 08:29:04;;;;;;;805.83;412.52;;;;;;;;;;5062805;28;20036;-74
2022/01/22 08:36:43;;;;;;;804.30;414.10;;;;;;;;;;5064609;28;20307;-73
2022/01/22 08:39:09;;;;;;;809.60;418.77;;;;;;;;;;5060134;28;20048;-74
2022/01/22 08:41:36;;;;;;;805.75;416.23;;;;;;;;;;5062367;28;20059;-76
2022/01/22 08:44:02;;;;;;;805.63;424.88;;;;;;;;;;5047446;28;20028;-73
2022/01/22 08:46:35;;;;;;;805.03;423.40;;;;;;;;;;5062341;28;20037;-74
2022/01/22 08:49:04;;;;;;;805.28;418.65;;;;;;;;;;5055336;28;20100;-74
2022/01/22 08:51:30;;;;;;;804.83;410.05;;;;;;;;;;5064308;28;20036;-74
2022/01/22 08:53:56;;;;;;;802.08;413.27;;;;;;;;;;5047083;28;20392;-74
2022/01/22 08:56:22;;;;;;;809.25;423.63;;;;;;;;;;5065209;28;20024;-75
2022/01/22 08:58:48;;;;;;;806.58;424.30;;;;;;;;;;5064397;28;20067;-73
2022/01/22 09:01:14;;;;;;;808.80;420.83;;;;;;;;;;5059196;28;20021;-73
2022/01/22 09:03:40;;;;;;;808.83;427.17;;;;;;;;;;5064777;28;20093;-74
2022/01/22 09:06:07;;;;;;;807.20;423.35;;;;;;;;;;5062104;28;20107;-73
2022/01/22 09:08:33;;;;;;;808.20;421.83;;;;;;;;;;5059010;28;20413;-72
2022/01/22 09:10:59;;;;;;;806.20;420.92;;;;;;;;;;5056175;28;20106;-72
2022/01/22 09:13:26;;;;;;;804.78;422.95;;;;;;;;;;5043917;28;20054;-72
2022/01/22 09:15:55;;;;;;;805.83;423.08;;;;;;;;;;5062231;28;20024;-76
2022/01/22 09:18:22;;;;;;;805.65;416.42;;;;;;;;;;5063712;28;20035;-72
2022/01/22 09:23:14;;;;;;;809.75;426.65;;;;;;;;;;5054638;28;20524;-72
2022/01/22 09:25:40;;;;;;;809.58;430.02;;;;;;;;;;5061287;28;20099;-72
2022/01/22 09:28:07;;;;;;;804.90;415.52;;;;;;;;;;5064849;28;20541;-72
2022/01/22 09:30:34;;;;;;;807.03;422.65;;;;;;;;;;5064790;28;20067;-72
2022/01/22 09:33:00;;;;;;;806.92;419.30;;;;;;;;;;5062574;28;20107;-73
2022/01/22 09:35:26;;;;;;;809.55;431.42;;;;;;;;;;5060395;28;20021;-73
2022/01/22 09:37:52;;;;;;;807.30;422.20;;;;;;;;;;5061650;28;20033;-73
2022/01/22 09:40:18;;;;;;;808.97;423.45;;;;;;;;;;5061530;28;20044;-72
2022/01/22 09:42:44;;;;;;;807.08;424.95;;;;;;;;;;5047992;28;20036;-73
2022/01/22 09:45:12;;;;;;;802.95;416.45;;;;;;;;;;5053210;28;20032;-73
2022/01/22 09:47:39;;;;;;;810.83;428.90;;;;;;;;;;5041560;28;20531;-73
2022/01/22 09:50:06;;;;;;;807.17;423.75;;;;;;;;;;5038391;28;20040;-73
2022/01/22 09:52:32;;;;;;;805.10;412.67;;;;;;;;;;5058160;28;20032;-73
2022/01/22 09:54:58;;;;;;;804.13;421.88;;;;;;;;;;5041745;28;20041;-73
2022/01/22 09:57:26;;;;;;;805.22;414.88;;;;;;;;;;5063832;28;20649;-73
2022/01/22 09:59:52;;;;;;;808.40;421.08;;;;;;;;;;5044882;28;20031;-72
2022/01/22 10:02:19;;;;;;;808.72;423.85;;;;;;;;;;5046473;28;20032;-73
2022/01/22 10:04:48;;;;;;;811.00;429.58;;;;;;;;;;5062614;28;20490;-73
2022/01/22 10:07:18;;;;;;;809.05;423.58;;;;;;;;;;5065272;28;20024;-73
2022/01/22 10:10:03;;;;;;;807.50;419.75;;;;;;;;;;5060924;28;20036;-72
2022/01/22 10:12:30;;;;;;;808.50;424.92;;;;;;;;;;5042024;28;20056;-71
2022/01/22 10:15:02;;;;;;;799.83;400.48;;;;;;;;;;5053559;28;20431;-73
2022/01/22 10:17:43;;;;;;;805.40;417.10;;;;;;;;;;5066108;28;20555;-72
2022/01/22 10:20:24;;;;;;;805.13;419.13;;;;;;;;;;5060249;28;20024;-72
2022/01/22 10:22:55;;;;;;;805.83;420.15;;;;;;;;;;5057427;28;20029;-73
2022/01/22 10:25:21;;;;;;;802.22;413.85;;;;;;;;;;5043683;28;20498;-72
2022/01/22 10:27:57;;;;;;;804.72;417.50;;;;;;;;;;5042488;28;20035;-77
2022/01/22 10:30:28;;;;;;;803.97;413.67;;;;;;;;;;5061157;28;20056;-73
2022/01/22 10:33:05;;;;;;;805.95;417.77;;;;;;;;;;5064813;28;20027;-73
2022/01/22 10:35:32;;;;;;;803.55;412.58;;;;;;;;;;5050515;28;20024;-73
2022/01/22 10:37:59;;;;;;;805.83;420.35;;;;;;;;;;5048872;28;20538;-74
2022/01/22 10:40:27;;;;;;;804.65;415.08;;;;;;;;;;5048623;28;20031;-73
2022/01/22 10:43:12;;;;;;;799.42;403.02;;;;;;;;;;5048894;28;20078;-73
2022/01/22 10:45:41;;;;;;;797.03;399.75;;;;;;;;;;5041507;28;20159;-73
2022/01/22 10:48:17;;;;;;;800.65;411.55;;;;;;;;;;5038675;28;20225;-73
2022/01/22 10:50:44;;;;;;;801.45;407.92;;;;;;;;;;5049061;28;20066;-73
2022/01/22 10:53:10;;;;;;;806.92;418.13;;;;;;;;;;5049934;28;20321;-73
2022/01/22 10:55:55;;;;;;;801.13;409.40;;;;;;;;;;5067331;28;20588;-72
2022/01/22 10:58:21;;;;;;;801.08;406.40;;;;;;;;;;5068333;28;20238;-73
2022/01/22 11:00:58;;;;;;;807.00;419.52;;;;;;;;;;5068467;28;20033;-73
2022/01/22 11:03:26;;;;;;;801.20;414.13;;;;;;;;;;5066942;28;20552;-73
2022/01/22 11:05:52;;;;;;;803.15;414.83;;;;;;;;;;5067811;28;20040;-73
2022/01/22 11:08:18;;;;;;;800.65;409.48;;;;;;;;;;5048415;28;20371;-73
2022/01/22 11:10:44;;;;;;;802.20;415.48;;;;;;;;;;5050270;28;20075;-73
2022/01/22 11:13:11;;;;;;;801.33;410.42;;;;;;;;;;5047444;28;20052;-73
2022/01/22 11:15:37;;;;;;;803.45;416.05;;;;;;;;;;5068453;28;20472;-72
2022/01/22 11:18:04;;;;;;;808.20;424.95;;;;;;;;;;5039229;28;20657;-72
2022/01/22 11:20:32;;;;;;;799.35;411.05;;;;;;;;;;5066060;28;20024;-73
2022/01/22 11:22:59;;;;;;;804.67;420.05;;;;;;;;;;5059244;28;20473;-72
2022/01/22 11:25:26;;;;;;;801.47;405.50;;;;;;;;;;5067977;28;20032;-72
2022/01/22 11:27:52;;;;;;;805.78;418.30;;;;;;;;;;5068126;28;20541;-72
2022/01/22 11:30:19;;;;;;;803.90;418.30;;;;;;;;;;5063214;28;20029;-72
2022/01/22 11:32:53;;;;;;;802.78;414.63;;;;;;;;;;5049721;28;20037;-72
2022/01/22 11:35:21;;;;;;;810.33;432.50;;;;;;;;;;5049166;28;20056;-73
2022/01/22 11:37:49;;;;;;;805.03;422.38;;;;;;;;;;5063498;28;20032;-73
2022/01/22 11:40:17;;;;;;;803.25;417.95;;;;;;;;;;5067638;28;20075;-72
2022/01/22 11:43:10;;;;;;;803.05;414.25;;;;;;;;;;5068151;28;20349;-71
2022/01/22 11:45:42;;;;;;;806.53;422.15;;;;;;;;;;5067401;28;20028;-72
2022/01/22 11:48:10;;;;;;;806.35;421.80;;;;;;;;;;5067757;28;20036;-72
2022/01/22 11:50:37;;;;;;;801.53;412.00;;;;;;;;;;5064086;28;20523;-72
2022/01/22 11:53:22;;;;;;;811.08;436.10;;;;;;;;;;5055514;28;20021;-72
2022/01/22 11:56:07;;;;;;;806.78;420.92;;;;;;;;;;5060885;28;20033;-72
2022/01/22 11:58:33;;;;;;;810.80;433.83;;;;;;;;;;5068109;28;20407;-72
2022/01/22 12:00:58;;;;;;;809.83;433.10;;;;;;;;;;5064822;28;20064;-72
2022/01/22 12:03:24;;;;;;;812.83;443.65;;;;;;;;;;5048281;28;20043;-74
2022/01/22 12:05:53;;;;;;;811.55;442.52;;;;;;;;;;5064353;28;20031;-73
2022/01/22 12:08:20;;;;;;;809.45;439.40;;;;;;;;;;5056170;28;20064;-72
2022/01/22 12:16:17;;;;;;;806.08;424.75;;;;;;;;;;5054386;28;20419;-72
2022/01/22 12:18:57;;;;;;;808.60;427.00;;;;;;;;;;5041734;28;20025;-73
2022/01/22 12:21:38;;;;;;;808.17;426.38;;;;;;;;;;5067133;28;20362;-73
2022/01/22 12:24:09;;;;;;;809.75;433.10;;;;;;;;;;5064528;28;20032;-72
2022/01/22 12:26:40;;;;;;;808.10;427.73;;;;;;;;;;5049353;28;20329;-73
2022/01/22 12:29:24;;;;;;;811.38;445.00;;;;;;;;;;5063235;28;20487;-73
2022/01/22 12:32:17;;;;;;;810.75;429.98;;;;;;;;;;5066345;28;20082;-72
2022/01/22 12:34:57;;;;;;;807.60;432.13;;;;;;;;;;5061040;28;20493;-72
2022/01/22 12:37:23;;;;;;;808.90;425.85;;;;;;;;;;5046770;28;20029;-73
2022/01/22 12:39:52;;;;;;;811.72;432.50;;;;;;;;;;5060094;28;20027;-72
2022/01/22 12:42:27;;;;;;;810.83;434.10;;;;;;;;;;5061845;28;20016;-72
2022/01/22 12:44:58;;;;;;;809.53;429.35;;;;;;;;;;5045275;28;20097;-75
2022/01/22 12:47:25;;;;;;;810.45;435.40;;;;;;;;;;5065184;28;20032;-73
2022/01/22 12:50:01;;;;;;;812.88;446.08;;;;;;;;;;5039506;28;20116;-73
2022/01/22 12:52:28;;;;;;;812.33;444.67;;;;;;;;;;5063213;28;20059;-73
2022/01/22 12:54:58;;;;;;;810.22;443.10;;;;;;;;;;5070548;28;20369;-73
2022/01/22 12:57:25;;;;;;;814.13;445.23;;;;;;;;;;5069587;28;20501;-73
2022/01/22 12:59:51;;;;;;;812.63;441.48;;;;;;;;;;5065865;28;20027;-78
2022/01/22 13:02:18;;;;;;;815.42;448.42;;;;;;;;;;5047304;28;20035;-73
2022/01/22 13:04:57;;;;;;;813.28;448.60;;;;;;;;;;5048182;28;20028;-74
2022/01/22 13:07:25;;;;;;;813.63;441.63;;;;;;;;;;5064132;28;20098;-74
2022/01/22 13:09:55;;;;;;;815.10;443.58;;;;;;;;;;5055349;28;20021;-74
2022/01/22 13:12:22;;;;;;;818.38;452.13;;;;;;;;;;5065934;28;20116;-74
2022/01/22 13:14:54;;;;;;;813.95;450.58;;;;;;;;;;5066267;28;20028;-74
2022/01/22 13:17:20;;;;;;;813.40;437.85;;;;;;;;;;5067035;28;20020;-73
2022/01/22 13:19:46;;;;;;;809.22;431.17;;;;;;;;;;5064478;28;20400;-73
2022/01/22 13:22:12;;;;;;;815.60;448.58;;;;;;;;;;5065862;28;20325;-73
2022/01/22 13:24:37;;;;;;;812.95;443.23;;;;;;;;;;5047977;28;20034;-73
2022/01/22 13:27:12;;;;;;;817.80;454.80;;;;;;;;;;5066228;28;20052;-74
2022/01/22 13:29:42;;;;;;;816.97;447.25;;;;;;;;;;5066087;28;20036;-73
2022/01/22 13:32:26;;;;;;;811.88;439.70;;;;;;;;;;5066003;28;20028;-73
2022/01/22 13:49:00;;;;;;;816.53;446.55;;;;;;;;;;5064510;28;20039;-74
2022/01/22 13:51:27;;;;;;;817.47;455.20;;;;;;;;;;5047271;28;20029;-74
2022/01/22 13:53:54;;;;;;;815.83;450.60;;;;;;;;;;5063659;28;20036;-74
2022/01/22 13:56:22;;;;;;;817.50;457.92;;;;;;;;;;5064748;28;20028;-73
2022/01/22 13:58:53;;;;;;;820.40;463.83;;;;;;;;;;5065667;28;20020;-73
2022/01/22 14:01:32;;;;;;;815.10;445.60;;;;;;;;;;5065057;28;20031;-73
2022/01/22 14:04:08;;;;;;;813.70;440.83;;;;;;;;;;5063590;28;20498;-73
2022/01/22 14:06:34;;;;;;;816.85;448.98;;;;;;;;;;5047273;28;20082;-73
2022/01/22 14:09:14;;;;;;;811.70;440.08;;;;;;;;;;5061326;28;20468;-73
2022/01/22 14:11:59;;;;;;;815.00;449.17;;;;;;;;;;5063162;28;20133;-73
2022/01/22 14:14:26;;;;;;;816.80;448.60;;;;;;;;;;5064872;28;20097;-73
2022/01/22 14:17:13;;;;;;;816.13;445.52;;;;;;;;;;5047520;28;20025;-73
2022/01/22 14:19:38;;;;;;;814.60;445.52;;;;;;;;;;5045805;28;20028;-73
2022/01/22 14:22:04;;;;;;;813.75;442.60;;;;;;;;;;5064097;28;20024;-73
2022/01/22 14:24:31;;;;;;;814.75;444.77;;;;;;;;;;5065203;28;20059;-73
2022/01/22 14:26:57;;;;;;;810.55;436.45;;;;;;;;;;5064869;28;20025;-73
2022/01/22 14:29:23;;;;;;;813.13;440.45;;;;;;;;;;5062721;28;20036;-73
2022/01/22 14:31:50;;;;;;;814.70;446.85;;;;;;;;;;5064256;28;20101;-74
2022/01/22 14:34:36;;;;;;;814.75;447.83;;;;;;;;;;5058471;28;20692;-73
2022/01/22 14:37:03;;;;;;;815.80;442.33;;;;;;;;;;5039623;28;20060;-74
2022/01/22 14:45:13;;;;;;;808.50;413.52;;;;;;;;;;5064297;28;20026;-74
2022/01/22 14:47:39;;;;;;;811.97;439.80;;;;;;;;;;5062058;28;20391;-73
2022/01/22 14:50:09;;;;;;;810.63;434.58;;;;;;;;;;5048313;28;20108;-74
2022/01/22 14:52:35;;;;;;;816.15;446.48;;;;;;;;;;5063113;28;20194;-74
2022/01/22 14:55:04;;;;;;;816.75;447.52;;;;;;;;;;5064417;28;20028;-74
2022/01/22 14:57:42;;;;;;;812.83;437.50;;;;;;;;;;5063053;28;20016;-74
2022/01/22 15:00:10;;;;;;;815.88;446.27;;;;;;;;;;5068855;28;20024;-74
2022/01/22 15:02:37;;;;;;;818.20;446.73;;;;;;;;;;5063532;28;20063;-74
2022/01/22 15:05:04;;;;;;;813.03;436.80;;;;;;;;;;5059965;28;20029;-74
2022/01/22 15:07:30;;;;;;;815.22;442.05;;;;;;;;;;5063979;28;20055;-73
2022/01/22 15:09:56;;;;;;;812.25;435.42;;;;;;;;;;5065290;28;20033;-73
2022/01/22 15:12:22;;;;;;;813.17;443.15;;;;;;;;;;5063633;28;20051;-73
2022/01/22 15:14:50;;;;;;;811.20;435.55;;;;;;;;;;5047417;28;20032;-73
2022/01/22 15:19:45;;;;;;;815.38;439.42;;;;;;;;;;5059649;28;20447;-73
2022/01/22 15:22:13;;;;;;;813.33;432.27;;;;;;;;;;5061356;28;20068;-75
2022/01/22 15:24:40;;;;;;;814.60;434.52;;;;;;;;;;5069746;28;20036;-72
2022/01/22 15:27:10;;;;;;;813.90;438.38;;;;;;;;;;5067029;28;20210;-72
2022/01/22 15:32:45;;;;;;;813.00;426.25;;;;;;;;;;5026656;28;20090;-72
2022/01/22 15:35:12;;;;;;;813.88;432.45;;;;;;;;;;5068892;28;20032;-73
2022/01/22 15:37:44;;;;;;;812.88;428.38;;;;;;;;;;5064045;28;20031;-73
2022/01/22 15:40:10;;;;;;;812.15;425.77;;;;;;;;;;5062554;28;20043;-71
2022/01/22 15:42:37;;;;;;;815.50;437.48;;;;;;;;;;5062523;28;20032;-73
2022/01/22 15:45:03;;;;;;;816.10;436.65;;;;;;;;;;5039869;28;20028;-73
2022/01/22 15:47:29;;;;;;;812.92;433.83;;;;;;;;;;5058576;28;20031;-73
2022/01/22 15:49:56;;;;;;;812.20;427.45;;;;;;;;;;5063205;28;20032;-73
2022/01/22 15:52:22;;;;;;;812.92;429.42;;;;;;;;;;5046108;28;20057;-73
2022/01/22 15:54:48;;;;;;;807.95;417.80;;;;;;;;;;5041038;28;20115;-74
2022/01/22 15:57:15;;;;;;;813.63;433.25;;;;;;;;;;5060833;28;20124;-73
2022/01/22 15:59:41;;;;;;;814.58;438.15;;;;;;;;;;5066655;28;20052;-73